Badsworth, United Kingdom
Current Conditions -  °F | °C
As of 10:20 PM on Friday 28 Nov 2014 (Local Time) from EGCN Reporting Station
Overcast Overcast  
Wind Chill: 50°   Ceiling: 1200
Heat Index: 50°   Visibility: 4mi
Dew Point: 48°   Wind: 5mph
Humidity: 94%   Direction: 50°NE
Pressure: 29.85"   Gusts: NA
Location:  53.63°N, 1.3°W
Report Text: EGCN 282220Z 05004KT 6000 OVC012 10/09 Q1011
Loading
Personal Weather Stations






























Interactive Weather Map New forecast layout! Learn more

10-Day Weather Forecast

Advertisements
Track Severe Weather on mobile